sensor_id;sensor_type;location;lat;lon;timestamp;noise_LAeq;noise_LA_min;noise_LA_max;noise_LA01;noise_LA95
60116;Laerm;62818;49.394;8.686;2022-11-20T00:00:27;63.18;44.19;72.08;;
60116;Laerm;62818;49.394;8.686;2022-11-20T00:01:30;64.90;43.99;76.03;;
60116;Laerm;62818;49.394;8.686;2022-11-20T00:02:33;62.89;46.23;71.61;;
60116;Laerm;62818;49.394;8.686;2022-11-20T00:03:38;62.43;43.94;71.81;;
60116;Laerm;62818;49.394;8.686;2022-11-20T00:04:41;62.76;44.47;72.35;;
60116;Laerm;62818;49.394;8.686;2022-11-20T00:05:44;62.74;44.97;72.49;;
60116;Laerm;62818;49.394;8.686;2022-11-20T00:06:47;62.92;44.43;73.14;;
60116;Laerm;62818;49.394;8.686;2022-11-20T00:07:48;62.47;44.31;70.76;;
60116;Laerm;62818;49.394;8.686;2022-11-20T00:08:49;62.88;45.66;71.68;;
60116;Laerm;62818;49.394;8.686;2022-11-20T00:09:52;55.60;43.58;65.82;;
60116;Laerm;62818;49.394;8.686;2022-11-20T00:10:55;62.93;43.86;72.53;;
60116;Laerm;62818;49.394;8.686;2022-11-20T00:11:56;65.29;44.19;73.27;;
60116;Laerm;62818;49.394;8.686;2022-11-20T00:12:59;64.02;44.80;72.25;;
60116;Laerm;62818;49.394;8.686;2022-11-20T00:14:03;63.97;43.99;72.87;;
60116;Laerm;62818;49.394;8.686;2022-11-20T00:15:04;64.55;44.27;72.40;;
60116;Laerm;62818;49.394;8.686;2022-11-20T00:16:10;63.67;44.83;72.52;;
60116;Laerm;62818;49.394;8.686;2022-11-20T00:17:13;64.01;45.33;72.50;;
60116;Laerm;62818;49.394;8.686;2022-11-20T00:18:16;64.41;46.18;72.54;;
60116;Laerm;62818;49.394;8.686;2022-11-20T00:19:19;62.81;46.07;70.72;;
60116;Laerm;62818;49.394;8.686;2022-11-20T00:20:25;62.67;44.94;71.26;;
60116;Laerm;62818;49.394;8.686;2022-11-20T00:21:29;63.03;46.23;71.85;;
60116;Laerm;62818;49.394;8.686;2022-11-20T00:22:34;62.76;44.43;71.53;;
60116;Laerm;62818;49.394;8.686;2022-11-20T00:23:41;63.42;44.76;72.76;;
60116;Laerm;62818;49.394;8.686;2022-11-20T00:24:41;64.44;45.91;76.36;;
60116;Laerm;62818;49.394;8.686;2022-11-20T00:25:44;65.93;45.07;75.48;;
60116;Laerm;62818;49.394;8.686;2022-11-20T00:26:48;62.60;45.86;71.28;;
60116;Laerm;62818;49.394;8.686;2022-11-20T00:27:48;64.76;45.89;73.70;;
60116;Laerm;62818;49.394;8.686;2022-11-20T00:28:55;63.77;45.80;71.01;;
60116;Laerm;62818;49.394;8.686;2022-11-20T00:29:56;64.38;47.48;72.33;;
60116;Laerm;62818;49.394;8.686;2022-11-20T00:31:11;63.48;45.33;72.60;;
60116;Laerm;62818;49.394;8.686;2022-11-20T00:32:14;64.30;45.04;72.35;;
60116;Laerm;62818;49.394;8.686;2022-11-20T00:33:14;64.23;44.80;72.24;;
60116;Laerm;62818;49.394;8.686;2022-11-20T00:34:17;64.19;44.65;72.41;;
60116;Laerm;62818;49.394;8.686;2022-11-20T00:35:20;63.82;44.35;72.96;;
60116;Laerm;62818;49.394;8.686;2022-11-20T00:36:25;62.72;43.94;71.63;;
60116;Laerm;62818;49.394;8.686;2022-11-20T00:37:26;62.84;43.86;72.30;;
60116;Laerm;62818;49.394;8.686;2022-11-20T00:38:27;62.54;44.11;71.54;;
60116;Laerm;62818;49.394;8.686;2022-11-20T00:39:27;64.71;43.68;72.80;;
60116;Laerm;62818;49.394;8.686;2022-11-20T00:40:28;64.24;43.34;72.10;;
60116;Laerm;62818;49.394;8.686;2022-11-20T00:41:29;63.71;43.44;72.08;;
60116;Laerm;62818;49.394;8.686;2022-11-20T00:42:32;63.53;43.39;72.37;;
60116;Laerm;62818;49.394;8.686;2022-11-20T00:43:37;63.93;44.38;72.35;;
60116;Laerm;62818;49.394;8.686;2022-11-20T00:44:40;64.68;43.81;73.30;;
60116;Laerm;62818;49.394;8.686;2022-11-20T00:45:40;63.81;43.81;74.72;;
60116;Laerm;62818;49.394;8.686;2022-11-20T00:46:41;62.71;43.54;71.98;;
60116;Laerm;62818;49.394;8.686;2022-11-20T00:47:46;63.10;44.03;73.09;;
60116;Laerm;62818;49.394;8.686;2022-11-20T00:48:49;63.50;44.47;71.31;;
60116;Laerm;62818;49.394;8.686;2022-11-20T00:49:49;62.44;43.04;72.56;;
60116;Laerm;62818;49.394;8.686;2022-11-20T00:50:50;62.72;42.41;72.74;;
60116;Laerm;62818;49.394;8.686;2022-11-20T00:51:51;66.20;42.65;76.59;;
60116;Laerm;62818;49.394;8.686;2022-11-20T00:52:53;64.57;42.93;73.45;;
60116;Laerm;62818;49.394;8.686;2022-11-20T00:53:59;66.81;42.82;75.52;;
60116;Laerm;62818;49.394;8.686;2022-11-20T00:55:02;64.32;42.53;72.78;;
60116;Laerm;62818;49.394;8.686;2022-11-20T00:56:06;66.79;42.71;75.57;;
60116;Laerm;62818;49.394;8.686;2022-11-20T00:57:07;64.82;42.35;73.21;;
60116;Laerm;62818;49.394;8.686;2022-11-20T00:58:12;63.87;42.41;73.32;;
60116;Laerm;62818;49.394;8.686;2022-11-20T00:59:17;62.85;42.65;70.62;;
60116;Laerm;62818;49.394;8.686;2022-11-20T01:00:20;67.15;42.59;75.69;;
60116;Laerm;62818;49.394;8.686;2022-11-20T01:01:25;64.58;42.65;73.13;;
60116;Laerm;62818;49.394;8.686;2022-11-20T01:02:29;64.33;42.16;74.47;;
60116;Laerm;62818;49.394;8.686;2022-11-20T01:03:36;62.29;42.29;70.98;;
60116;Laerm;62818;49.394;8.686;2022-11-20T01:04:37;64.59;42.93;72.27;;
60116;Laerm;62818;49.394;8.686;2022-11-20T01:05:39;62.17;42.41;70.72;;
60116;Laerm;62818;49.394;8.686;2022-11-20T01:06:42;62.54;42.03;71.20;;
60116;Laerm;62818;49.394;8.686;2022-11-20T01:07:43;62.55;42.22;71.67;;
60116;Laerm;62818;49.394;8.686;2022-11-20T01:08:44;67.06;42.22;75.77;;
60116;Laerm;62818;49.394;8.686;2022-11-20T01:09:45;63.37;42.16;72.18;;
60116;Laerm;62818;49.394;8.686;2022-11-20T01:10:50;62.25;42.03;71.76;;
60116;Laerm;62818;49.394;8.686;2022-11-20T01:11:56;63.31;42.47;72.79;;
60116;Laerm;62818;49.394;8.686;2022-11-20T01:13:01;63.89;42.16;73.83;;
60116;Laerm;62818;49.394;8.686;2022-11-20T01:14:22;63.09;43.90;72.33;;
60116;Laerm;62818;49.394;8.686;2022-11-20T01:15:25;63.00;42.98;70.12;;
60116;Laerm;62818;49.394;8.686;2022-11-20T01:16:30;64.07;41.89;73.35;;
60116;Laerm;62818;49.394;8.686;2022-11-20T01:17:35;63.79;42.35;72.58;;
60116;Laerm;62818;49.394;8.686;2022-11-20T01:18:37;64.39;43.77;72.45;;
60116;Laerm;62818;49.394;8.686;2022-11-20T01:19:41;64.79;42.35;73.48;;
60116;Laerm;62818;49.394;8.686;2022-11-20T01:20:41;63.38;42.03;75.74;;
60116;Laerm;62818;49.394;8.686;2022-11-20T01:21:50;63.92;42.59;72.59;;
60116;Laerm;62818;49.394;8.686;2022-11-20T01:22:51;64.09;42.82;72.49;;
60116;Laerm;62818;49.394;8.686;2022-11-20T01:23:52;63.05;43.58;71.60;;
60116;Laerm;62818;49.394;8.686;2022-11-20T01:24:53;63.86;42.16;72.31;;
60116;Laerm;62818;49.394;8.686;2022-11-20T01:25:56;64.17;42.59;72.55;;
60116;Laerm;62818;49.394;8.686;2022-11-20T01:26:58;64.25;42.22;72.44;;
60116;Laerm;62818;49.394;8.686;2022-11-20T01:28:04;63.88;42.22;72.12;;
60116;Laerm;62818;49.394;8.686;2022-11-20T01:29:13;63.76;41.96;72.46;;
60116;Laerm;62818;49.394;8.686;2022-11-20T01:30:16;64.16;42.22;73.60;;
60116;Laerm;62818;49.394;8.686;2022-11-20T01:31:20;63.61;42.59;72.11;;
60116;Laerm;62818;49.394;8.686;2022-11-20T01:32:24;63.32;43.04;70.91;;
60116;Laerm;62818;49.394;8.686;2022-11-20T01:33:27;63.78;42.35;72.36;;
60116;Laerm;62818;49.394;8.686;2022-11-20T01:34:28;64.11;42.47;72.24;;
60116;Laerm;62818;49.394;8.686;2022-11-20T01:35:31;63.68;42.41;71.96;;
60116;Laerm;62818;49.394;8.686;2022-11-20T01:36:34;63.61;41.82;72.52;;
60116;Laerm;62818;49.394;8.686;2022-11-20T01:37:38;64.43;43.29;73.08;;
60116;Laerm;62818;49.394;8.686;2022-11-20T01:38:39;63.51;42.71;72.19;;
60116;Laerm;62818;49.394;8.686;2022-11-20T01:39:42;64.35;42.29;71.98;;
60116;Laerm;62818;49.394;8.686;2022-11-20T01:40:44;64.04;41.89;72.91;;
60116;Laerm;62818;49.394;8.686;2022-11-20T01:41:46;63.37;41.96;72.05;;
60116;Laerm;62818;49.394;8.686;2022-11-20T01:43:23;61.63;41.89;72.37;;
60116;Laerm;62818;49.394;8.686;2022-11-20T01:47:05;63.82;42.47;73.08;;
60116;Laerm;62818;49.394;8.686;2022-11-20T01:48:09;62.65;42.59;72.13;;
60116;Laerm;62818;49.394;8.686;2022-11-20T01:49:44;60.99;43.04;70.18;;
60116;Laerm;62818;49.394;8.686;2022-11-20T01:50:50;62.05;43.09;72.47;;
60116;Laerm;62818;49.394;8.686;2022-11-20T01:52:00;62.13;42.53;72.92;;
60116;Laerm;62818;49.394;8.686;2022-11-20T01:53:11;61.88;42.09;72.10;;
60116;Laerm;62818;49.394;8.686;2022-11-20T01:54:19;43.26;41.89;47.84;;
60116;Laerm;62818;49.394;8.686;2022-11-20T01:55:26;62.65;42.47;73.29;;
60116;Laerm;62818;49.394;8.686;2022-11-20T01:56:36;62.17;42.41;72.25;;
60116;Laerm;62818;49.394;8.686;2022-11-20T01:57:38;65.31;41.96;74.45;;
60116;Laerm;62818;49.394;8.686;2022-11-20T01:58:49;63.50;41.96;71.80;;
60116;Laerm;62818;49.394;8.686;2022-11-20T02:00:04;63.26;42.29;72.59;;
60116;Laerm;62818;49.394;8.686;2022-11-20T02:01:14;63.70;41.89;72.79;;
60116;Laerm;62818;49.394;8.686;2022-11-20T02:02:15;63.00;41.68;75.50;;
60116;Laerm;62818;49.394;8.686;2022-11-20T02:03:21;62.58;43.51;71.21;;
60116;Laerm;62818;49.394;8.686;2022-11-20T02:04:25;62.93;42.71;72.43;;
60116;Laerm;62818;49.394;8.686;2022-11-20T02:06:50;62.33;42.16;70.67;;
60116;Laerm;62818;49.394;8.686;2022-11-20T02:07:56;62.79;42.59;72.16;;
60116;Laerm;62818;49.394;8.686;2022-11-20T02:09:04;62.22;42.35;70.96;;
60116;Laerm;62818;49.394;8.686;2022-11-20T02:10:05;62.37;41.96;71.87;;
60116;Laerm;62818;49.394;8.686;2022-11-20T02:11:08;62.48;42.16;72.22;;
60116;Laerm;62818;49.394;8.686;2022-11-20T02:12:09;65.03;41.68;73.27;;
60116;Laerm;62818;49.394;8.686;2022-11-20T02:13:30;64.97;42.22;75.19;;
60116;Laerm;62818;49.394;8.686;2022-11-20T02:14:45;63.40;42.29;72.41;;
60116;Laerm;62818;49.394;8.686;2022-11-20T02:15:49;63.85;41.96;72.40;;
60116;Laerm;62818;49.394;8.686;2022-11-20T02:16:54;63.33;42.16;71.21;;
60116;Laerm;62818;49.394;8.686;2022-11-20T02:17:57;62.44;42.41;70.72;;
60116;Laerm;62818;49.394;8.686;2022-11-20T02:19:09;62.10;42.03;71.26;;
60116;Laerm;62818;49.394;8.686;2022-11-20T02:20:17;64.16;43.04;73.71;;
60116;Laerm;62818;49.394;8.686;2022-11-20T02:21:40;62.58;42.09;71.36;;
60116;Laerm;62818;49.394;8.686;2022-11-20T02:22:57;61.07;42.35;72.26;;
60116;Laerm;62818;49.394;8.686;2022-11-20T02:25:18;62.69;42.59;72.53;;
60116;Laerm;62818;49.394;8.686;2022-11-20T02:26:23;62.46;41.96;72.62;;
60116;Laerm;62818;49.394;8.686;2022-11-20T02:27:31;62.21;41.82;72.52;;
60116;Laerm;62818;49.394;8.686;2022-11-20T02:28:34;62.33;42.03;71.82;;
60116;Laerm;62818;49.394;8.686;2022-11-20T02:30:03;63.85;42.88;76.79;;
60116;Laerm;62818;49.394;8.686;2022-11-20T02:31:06;64.11;43.86;73.66;;
60116;Laerm;62818;49.394;8.686;2022-11-20T02:32:33;63.12;41.82;72.27;;
60116;Laerm;62818;49.394;8.686;2022-11-20T02:33:36;63.57;42.09;72.03;;
60116;Laerm;62818;49.394;8.686;2022-11-20T02:34:36;64.42;42.47;72.73;;
60116;Laerm;62818;49.394;8.686;2022-11-20T02:35:45;63.41;42.29;72.43;;
60116;Laerm;62818;49.394;8.686;2022-11-20T02:36:48;64.19;42.76;72.84;;
60116;Laerm;62818;49.394;8.686;2022-11-20T02:37:54;63.58;41.75;72.20;;
60116;Laerm;62818;49.394;8.686;2022-11-20T02:38:56;64.36;42.16;73.28;;
60116;Laerm;62818;49.394;8.686;2022-11-20T02:39:58;64.02;43.49;72.36;;
60116;Laerm;62818;49.394;8.686;2022-11-20T02:40:59;63.96;45.20;72.09;;
60116;Laerm;62818;49.394;8.686;2022-11-20T02:42:02;64.26;44.15;73.64;;
60116;Laerm;62818;49.394;8.686;2022-11-20T02:43:02;63.89;43.39;72.03;;
60116;Laerm;62818;49.394;8.686;2022-11-20T02:44:04;63.87;43.86;72.79;;
60116;Laerm;62818;49.394;8.686;2022-11-20T02:45:12;63.65;43.49;72.05;;
60116;Laerm;62818;49.394;8.686;2022-11-20T02:46:13;64.05;42.71;71.92;;
60116;Laerm;62818;49.394;8.686;2022-11-20T02:47:13;63.91;43.44;71.25;;
60116;Laerm;62818;49.394;8.686;2022-11-20T02:48:16;64.46;42.41;73.71;;
60116;Laerm;62818;49.394;8.686;2022-11-20T02:49:16;64.07;42.71;72.34;;
60116;Laerm;62818;49.394;8.686;2022-11-20T02:50:19;63.44;42.47;72.08;;
60116;Laerm;62818;49.394;8.686;2022-11-20T02:51:20;63.90;42.71;71.80;;
60116;Laerm;62818;49.394;8.686;2022-11-20T02:52:20;64.08;43.19;71.70;;
60116;Laerm;62818;49.394;8.686;2022-11-20T02:53:21;63.11;43.44;71.42;;
60116;Laerm;62818;49.394;8.686;2022-11-20T02:54:26;64.37;43.54;72.36;;
60116;Laerm;62818;49.394;8.686;2022-11-20T02:55:27;63.91;45.17;72.49;;
60116;Laerm;62818;49.394;8.686;2022-11-20T02:56:34;63.45;47.81;71.57;;
60116;Laerm;62818;49.394;8.686;2022-11-20T02:57:35;64.83;46.07;77.73;;
60116;Laerm;62818;49.394;8.686;2022-11-20T02:58:38;62.56;45.14;71.94;;
60116;Laerm;62818;49.394;8.686;2022-11-20T02:59:41;64.61;44.73;72.76;;
60116;Laerm;62818;49.394;8.686;2022-11-20T03:00:44;62.40;44.35;70.70;;
60116;Laerm;62818;49.394;8.686;2022-11-20T03:01:44;63.82;44.65;72.89;;
60116;Laerm;62818;49.394;8.686;2022-11-20T03:02:54;64.26;46.30;72.38;;
60116;Laerm;62818;49.394;8.686;2022-11-20T03:03:57;64.54;49.03;72.51;;
60116;Laerm;62818;49.394;8.686;2022-11-20T03:05:00;64.13;45.66;73.38;;
60116;Laerm;62818;49.394;8.686;2022-11-20T03:06:01;64.42;45.60;72.92;;
60116;Laerm;62818;49.394;8.686;2022-11-20T03:07:04;63.63;44.87;71.79;;
60116;Laerm;62818;49.394;8.686;2022-11-20T03:08:07;63.67;44.62;71.71;;
60116;Laerm;62818;49.394;8.686;2022-11-20T03:09:10;64.51;44.03;72.32;;
60116;Laerm;62818;49.394;8.686;2022-11-20T03:10:10;64.11;43.68;72.21;;
60116;Laerm;62818;49.394;8.686;2022-11-20T03:11:13;64.45;43.19;72.16;;
60116;Laerm;62818;49.394;8.686;2022-11-20T03:12:17;63.52;43.09;71.48;;
60116;Laerm;62818;49.394;8.686;2022-11-20T03:13:19;65.09;43.68;77.31;;
60116;Laerm;62818;49.394;8.686;2022-11-20T03:14:24;62.32;43.14;70.91;;
60116;Laerm;62818;49.394;8.686;2022-11-20T03:15:25;64.53;42.93;73.22;;
60116;Laerm;62818;49.394;8.686;2022-11-20T03:16:27;63.36;43.44;72.50;;
60116;Laerm;62818;49.394;8.686;2022-11-20T03:17:30;64.02;43.14;76.04;;
60116;Laerm;62818;49.394;8.686;2022-11-20T03:18:33;63.07;43.24;71.47;;
60116;Laerm;62818;49.394;8.686;2022-11-20T03:19:34;64.37;42.93;72.52;;
60116;Laerm;62818;49.394;8.686;2022-11-20T03:20:37;62.30;42.64;70.80;;
60116;Laerm;62818;49.394;8.686;2022-11-20T03:21:38;63.59;43.29;72.91;;
60116;Laerm;62818;49.394;8.686;2022-11-20T03:22:42;62.27;43.04;72.32;;
60116;Laerm;62818;49.394;8.686;2022-11-20T03:23:45;64.16;42.47;72.28;;
60116;Laerm;62818;49.394;8.686;2022-11-20T03:24:48;64.56;42.71;77.17;;
60116;Laerm;62818;49.394;8.686;2022-11-20T03:25:51;62.49;43.81;70.95;;
60116;Laerm;62818;49.394;8.686;2022-11-20T03:26:52;62.39;42.47;70.30;;
60116;Laerm;62818;49.394;8.686;2022-11-20T03:27:52;62.84;42.93;70.71;;
60116;Laerm;62818;49.394;8.686;2022-11-20T03:28:57;63.74;43.29;72.16;;
60116;Laerm;62818;49.394;8.686;2022-11-20T03:30:05;63.63;43.04;72.12;;
60116;Laerm;62818;49.394;8.686;2022-11-20T03:31:13;63.82;43.68;72.67;;
60116;Laerm;62818;49.394;8.686;2022-11-20T03:32:16;63.68;43.90;72.25;;
60116;Laerm;62818;49.394;8.686;2022-11-20T03:33:16;63.63;44.35;72.27;;
60116;Laerm;62818;49.394;8.686;2022-11-20T03:34:19;64.32;44.43;72.15;;
60116;Laerm;62818;49.394;8.686;2022-11-20T03:35:22;63.75;45.04;72.28;;
60116;Laerm;62818;49.394;8.686;2022-11-20T03:36:29;64.11;44.34;72.08;;
60116;Laerm;62818;49.394;8.686;2022-11-20T03:37:30;64.12;45.17;72.35;;
60116;Laerm;62818;49.394;8.686;2022-11-20T03:38:34;64.01;45.36;72.38;;
60116;Laerm;62818;49.394;8.686;2022-11-20T03:39:36;64.19;45.07;72.40;;
60116;Laerm;62818;49.394;8.686;2022-11-20T03:40:39;64.33;44.87;73.36;;
60116;Laerm;62818;49.394;8.686;2022-11-20T03:41:41;64.46;44.80;72.31;;
60116;Laerm;62818;49.394;8.686;2022-11-20T03:42:42;64.12;45.20;71.80;;
60116;Laerm;62818;49.394;8.686;2022-11-20T03:43:53;63.96;45.91;72.13;;
60116;Laerm;62818;49.394;8.686;2022-11-20T03:44:55;63.86;44.90;71.74;;
60116;Laerm;62818;49.394;8.686;2022-11-20T03:45:56;63.91;45.54;72.59;;
60116;Laerm;62818;49.394;8.686;2022-11-20T03:46:56;64.07;46.02;72.39;;
60116;Laerm;62818;49.394;8.686;2022-11-20T03:48:01;64.25;45.36;72.41;;
60116;Laerm;62818;49.394;8.686;2022-11-20T03:49:06;63.90;46.33;72.23;;
60116;Laerm;62818;49.394;8.686;2022-11-20T03:50:13;63.62;45.14;72.28;;
60116;Laerm;62818;49.394;8.686;2022-11-20T03:51:22;63.69;45.07;72.01;;
60116;Laerm;62818;49.394;8.686;2022-11-20T03:52:29;64.06;45.63;71.75;;
60116;Laerm;62818;49.394;8.686;2022-11-20T03:53:31;64.39;45.51;71.89;;
60116;Laerm;62818;49.394;8.686;2022-11-20T03:54:36;63.59;45.45;73.07;;
60116;Laerm;62818;49.394;8.686;2022-11-20T03:55:39;63.93;44.73;71.67;;
60116;Laerm;62818;49.394;8.686;2022-11-20T03:56:46;64.13;44.58;72.39;;
60116;Laerm;62818;49.394;8.686;2022-11-20T03:57:49;63.84;45.01;72.04;;
60116;Laerm;62818;49.394;8.686;2022-11-20T03:58:50;64.34;44.94;72.71;;
60116;Laerm;62818;49.394;8.686;2022-11-20T03:59:53;63.94;45.33;72.64;;
60116;Laerm;62818;49.394;8.686;2022-11-20T04:00:56;64.15;45.04;72.07;;
60116;Laerm;62818;49.394;8.686;2022-11-20T04:01:56;63.55;45.20;71.33;;
60116;Laerm;62818;49.394;8.686;2022-11-20T04:03:02;63.18;45.04;71.09;;
60116;Laerm;62818;49.394;8.686;2022-11-20T04:04:05;63.88;45.57;76.25;;
60116;Laerm;62818;49.394;8.686;2022-11-20T04:05:06;65.59;49.55;75.67;;
60116;Laerm;62818;49.394;8.686;2022-11-20T04:06:14;65.02;51.45;73.19;;
60116;Laerm;62818;49.394;8.686;2022-11-20T04:07:15;65.46;53.49;73.54;;
60116;Laerm;62818;49.394;8.686;2022-11-20T04:08:22;65.38;55.03;72.18;;
60116;Laerm;62818;49.394;8.686;2022-11-20T04:09:27;64.64;52.51;72.14;;
60116;Laerm;62818;49.394;8.686;2022-11-20T04:10:30;65.10;50.30;74.35;;
60116;Laerm;62818;49.394;8.686;2022-11-20T04:11:34;63.24;47.76;75.42;;
60116;Laerm;62818;49.394;8.686;2022-11-20T04:12:35;63.93;47.20;76.47;;
60116;Laerm;62818;49.394;8.686;2022-11-20T04:13:38;63.39;46.89;72.12;;
60116;Laerm;62818;49.394;8.686;2022-11-20T04:14:44;63.42;48.39;71.29;;
60116;Laerm;62818;49.394;8.686;2022-11-20T04:15:44;62.74;47.06;71.50;;
60116;Laerm;62818;49.394;8.686;2022-11-20T04:16:49;62.83;49.18;70.89;;
60116;Laerm;62818;49.394;8.686;2022-11-20T04:17:49;64.32;49.67;71.52;;
60116;Laerm;62818;49.394;8.686;2022-11-20T04:18:58;65.17;53.92;73.10;;
60116;Laerm;62818;49.394;8.686;2022-11-20T04:19:59;64.93;53.45;72.95;;
60116;Laerm;62818;49.394;8.686;2022-11-20T04:21:00;62.99;49.47;70.98;;
60116;Laerm;62818;49.394;8.686;2022-11-20T04:22:03;62.89;48.73;71.36;;
60116;Laerm;62818;49.394;8.686;2022-11-20T04:23:06;62.72;47.61;70.61;;
60116;Laerm;62818;49.394;8.686;2022-11-20T04:24:07;63.53;48.70;71.63;;
60116;Laerm;62818;49.394;8.686;2022-11-20T04:25:08;62.72;48.67;71.04;;
60116;Laerm;62818;49.394;8.686;2022-11-20T04:26:11;63.30;49.07;72.01;;
60116;Laerm;62818;49.394;8.686;2022-11-20T04:27:14;64.06;48.48;72.15;;
60116;Laerm;62818;49.394;8.686;2022-11-20T04:28:17;64.19;47.77;72.26;;
60116;Laerm;62818;49.394;8.686;2022-11-20T04:29:20;64.83;48.42;73.29;;
60116;Laerm;62818;49.394;8.686;2022-11-20T04:30:21;63.87;48.60;71.32;;
60116;Laerm;62818;49.394;8.686;2022-11-20T04:31:29;62.25;47.30;70.99;;
60116;Laerm;62818;49.394;8.686;2022-11-20T04:32:32;64.24;48.48;72.31;;
60116;Laerm;62818;49.394;8.686;2022-11-20T04:33:33;64.36;48.43;72.69;;
60116;Laerm;62818;49.394;8.686;2022-11-20T04:34:34;65.00;49.64;72.16;;
60116;Laerm;62818;49.394;8.686;2022-11-20T04:35:39;64.13;48.61;72.41;;
60116;Laerm;62818;49.394;8.686;2022-11-20T04:36:42;64.36;48.36;72.32;;
60116;Laerm;62818;49.394;8.686;2022-11-20T04:37:44;64.40;48.54;71.87;;
60116;Laerm;62818;49.394;8.686;2022-11-20T04:38:46;64.48;47.98;71.80;;
60116;Laerm;62818;49.394;8.686;2022-11-20T04:39:49;64.45;48.34;72.86;;
60116;Laerm;62818;49.394;8.686;2022-11-20T04:40:57;64.10;48.12;72.58;;
60116;Laerm;62818;49.394;8.686;2022-11-20T04:42:00;64.22;50.05;72.21;;
60116;Laerm;62818;49.394;8.686;2022-11-20T04:43:22;64.14;52.09;72.37;;
60116;Laerm;62818;49.394;8.686;2022-11-20T04:44:26;64.43;51.43;72.74;;
60116;Laerm;62818;49.394;8.686;2022-11-20T04:45:29;64.38;50.62;72.42;;
60116;Laerm;62818;49.394;8.686;2022-11-20T04:46:41;64.70;52.68;72.01;;
60116;Laerm;62818;49.394;8.686;2022-11-20T04:47:42;61.63;52.15;70.35;;
60116;Laerm;62818;49.394;8.686;2022-11-20T04:48:43;65.08;52.49;72.48;;
60116;Laerm;62818;49.394;8.686;2022-11-20T04:49:46;65.09;53.83;72.51;;
60116;Laerm;62818;49.394;8.686;2022-11-20T04:50:49;66.09;53.57;75.35;;
60116;Laerm;62818;49.394;8.686;2022-11-20T04:51:53;67.48;57.86;74.80;;
60116;Laerm;62818;49.394;8.686;2022-11-20T04:52:58;67.88;59.59;75.74;;
60116;Laerm;62818;49.394;8.686;2022-11-20T04:54:02;67.60;59.59;74.24;;
60116;Laerm;62818;49.394;8.686;2022-11-20T04:55:03;66.26;56.01;73.43;;
60116;Laerm;62818;49.394;8.686;2022-11-20T04:56:06;61.15;53.84;70.09;;
60116;Laerm;62818;49.394;8.686;2022-11-20T04:57:07;65.29;52.69;73.67;;
60116;Laerm;62818;49.394;8.686;2022-11-20T04:58:08;64.07;51.93;71.14;;
60116;Laerm;62818;49.394;8.686;2022-11-20T04:59:11;64.80;53.77;75.77;;
60116;Laerm;62818;49.394;8.686;2022-11-20T05:00:12;64.93;52.75;71.56;;
60116;Laerm;62818;49.394;8.686;2022-11-20T05:01:20;64.50;50.68;71.74;;
60116;Laerm;62818;49.394;8.686;2022-11-20T05:02:21;64.64;49.47;72.72;;
60116;Laerm;62818;49.394;8.686;2022-11-20T05:03:21;64.51;46.95;72.11;;
60116;Laerm;62818;49.394;8.686;2022-11-20T05:04:22;64.17;46.20;72.25;;
60116;Laerm;62818;49.394;8.686;2022-11-20T05:05:25;63.76;45.33;72.60;;
60116;Laerm;62818;49.394;8.686;2022-11-20T05:06:28;64.11;45.11;72.34;;
60116;Laerm;62818;49.394;8.686;2022-11-20T05:07:28;64.06;44.35;73.15;;
60116;Laerm;62818;49.394;8.686;2022-11-20T05:08:32;64.31;45.17;72.54;;
60116;Laerm;62818;49.394;8.686;2022-11-20T05:09:35;64.55;45.36;71.66;;
60116;Laerm;62818;49.394;8.686;2022-11-20T05:10:36;64.19;44.27;73.91;;
60116;Laerm;62818;49.394;8.686;2022-11-20T05:11:39;64.34;44.54;72.15;;
60116;Laerm;62818;49.394;8.686;2022-11-20T05:12:44;63.87;43.90;72.15;;
60116;Laerm;62818;49.394;8.686;2022-11-20T05:13:48;64.83;44.35;73.88;;
60116;Laerm;62818;49.394;8.686;2022-11-20T05:14:49;64.29;45.51;72.74;;
60116;Laerm;62818;49.394;8.686;2022-11-20T05:15:51;63.79;45.89;72.16;;
60116;Laerm;62818;49.394;8.686;2022-11-20T05:16:52;64.53;46.43;71.98;;
60116;Laerm;62818;49.394;8.686;2022-11-20T05:17:53;63.26;46.69;71.38;;
60116;Laerm;62818;49.394;8.686;2022-11-20T05:18:56;63.85;48.55;72.20;;
60116;Laerm;62818;49.394;8.686;2022-11-20T05:20:01;64.24;48.31;71.81;;
60116;Laerm;62818;49.394;8.686;2022-11-20T05:21:02;64.27;47.52;71.83;;
60116;Laerm;62818;49.394;8.686;2022-11-20T05:22:07;63.90;47.40;72.15;;
60116;Laerm;62818;49.394;8.686;2022-11-20T05:23:08;63.97;46.48;72.86;;
60116;Laerm;62818;49.394;8.686;2022-11-20T05:24:11;63.86;46.50;72.02;;
60116;Laerm;62818;49.394;8.686;2022-11-20T05:25:14;66.90;45.63;77.65;;
60116;Laerm;62818;49.394;8.686;2022-11-20T05:26:18;66.98;45.63;77.68;;
60116;Laerm;62818;49.394;8.686;2022-11-20T05:27:19;63.83;45.33;75.79;;
60116;Laerm;62818;49.394;8.686;2022-11-20T05:28:23;64.42;46.20;75.16;;
60116;Laerm;62818;49.394;8.686;2022-11-20T05:29:30;64.28;46.05;75.42;;
60116;Laerm;62818;49.394;8.686;2022-11-20T05:30:32;63.48;46.64;71.12;;
60116;Laerm;62818;49.394;8.686;2022-11-20T05:31:39;63.95;48.28;72.08;;
60116;Laerm;62818;49.394;8.686;2022-11-20T05:32:42;65.03;52.92;73.17;;
60116;Laerm;62818;49.394;8.686;2022-11-20T05:33:45;65.91;50.66;75.77;;
60116;Laerm;62818;49.394;8.686;2022-11-20T05:34:48;64.34;48.64;72.32;;
60116;Laerm;62818;49.394;8.686;2022-11-20T05:35:51;64.12;48.16;70.95;;
60116;Laerm;62818;49.394;8.686;2022-11-20T05:36:54;65.87;46.93;75.66;;
60116;Laerm;62818;49.394;8.686;2022-11-20T05:37:57;64.80;45.30;76.39;;
60116;Laerm;62818;49.394;8.686;2022-11-20T05:39:00;64.89;45.54;75.29;;
60116;Laerm;62818;49.394;8.686;2022-11-20T05:40:00;65.22;45.23;76.88;;
60116;Laerm;62818;49.394;8.686;2022-11-20T05:41:10;62.08;44.83;70.63;;
60116;Laerm;62818;49.394;8.686;2022-11-20T05:42:13;65.37;44.23;75.18;;
60116;Laerm;62818;49.394;8.686;2022-11-20T05:43:42;61.93;44.07;71.72;;
60116;Laerm;62818;49.394;8.686;2022-11-20T05:44:43;63.86;43.99;72.14;;
60116;Laerm;62818;49.394;8.686;2022-11-20T05:45:54;63.06;43.63;71.49;;
60116;Laerm;62818;49.394;8.686;2022-11-20T05:46:57;63.57;44.07;73.52;;
60116;Laerm;62818;49.394;8.686;2022-11-20T05:47:59;64.29;45.39;72.25;;
60116;Laerm;62818;49.394;8.686;2022-11-20T05:49:00;64.10;45.54;71.99;;
60116;Laerm;62818;49.394;8.686;2022-11-20T05:50:05;64.16;45.27;71.89;;
60116;Laerm;62818;49.394;8.686;2022-11-20T05:51:13;63.40;44.65;72.00;;
60116;Laerm;62818;49.394;8.686;2022-11-20T05:52:14;63.35;44.03;71.33;;
60116;Laerm;62818;49.394;8.686;2022-11-20T05:53:17;63.04;45.04;71.49;;
60116;Laerm;62818;49.394;8.686;2022-11-20T05:54:18;64.08;44.03;71.60;;
60116;Laerm;62818;49.394;8.686;2022-11-20T05:55:18;63.84;44.54;71.89;;
60116;Laerm;62818;49.394;8.686;2022-11-20T05:56:23;64.09;44.90;71.90;;
60116;Laerm;62818;49.394;8.686;2022-11-20T05:57:24;64.05;44.80;71.38;;
60116;Laerm;62818;49.394;8.686;2022-11-20T05:58:30;63.82;44.47;71.92;;
60116;Laerm;62818;49.394;8.686;2022-11-20T05:59:31;64.41;45.23;71.84;;
60116;Laerm;62818;49.394;8.686;2022-11-20T06:00:34;63.48;43.93;71.25;;
60116;Laerm;62818;49.394;8.686;2022-11-20T06:01:35;63.21;43.86;71.04;;
60116;Laerm;62818;49.394;8.686;2022-11-20T06:02:40;63.86;44.39;71.53;;
60116;Laerm;62818;49.394;8.686;2022-11-20T06:03:42;63.73;43.99;72.42;;